Gallatin Field
KBZN : now visible

Airfield :











YOU CAN JOIN US ON...

 
LOGIN :

Register | Disclaimer

   EN    FR    IT 

 









Legend :    VFR   Marginal VFR   IFR   Intensive IFR   Very Intensive IFR
Visi :
Ceiling :
>= 8 km
>= 3000ft
5 to 8 km
1000 to 3000 ft
1500m to 5 km
500 to 1000 ft
800 to 1500m
200 to 500 ft
< 800m
< 200 ft
Symbols :   Thunderstorms  Fog  Heavy snow  Heavy precipitations  Wind > 20 kt






- Airport Elevation : 4473 ft
- IATA code : BZN


KBZN - Gallatin Field

CURRENT METAR :
  • 290656Z AUTO 00000KT 10SM SCT045 BKN060 OVC075 09/08 A2964 RMK AO2 SLP026 T00890078 401440083

EXPIRED METARs :
  • 290556Z AUTO 13003KT 10SM SCT028 OVC075 09/08 A2965 RMK AO2 SLP031 60009 T00890078 10128 20089 58007
  • 290456Z 12004KT 10SM OVC065 09/08 A2967 RMK AO2 RAB38E47 SLP036 P0000 T00890083

TAF KBZN
Valid from the 29 at 06:00 until the 30 at 12:00 UTC


290530Z 2906/3012 VRB06KT P6SM VCSH SCT015 BKN035
TEMPO 2906/2910 4SM -SHRA BR SCT008 OVC015
FM291000 VRB06KT P6SM VCSH BKN015
FM291600 01007KT 6SM -SHRA BR BKN025
FM292000 09008KT 4SM SHRA BR OVC025
PROB30 2920/3002 2SM TSRA BR OVC015CB
KZLC FIR / North America



MET'MAP, your aeronautical weather chart ! - Copyright ORBIFLY December 2007 - Disclaimer

ORBIFLY MET'MAP TEAM :

Programming & Development : Alexandra Zaïnal
Original concept : Baudouin d'Aumeries
Technical & hardware support : Manuel Goepfert
Assistance : Marc-Olivier Méhu

Contact : metmap@orbifly.com




SOURCES & CREDITS :

   NOAA       Earth
Advisory